sensor_id;sensor_type;location;lat;lon;timestamp;noise_LAeq;noise_LA_min;noise_LA_max;noise_LA01;noise_LA95
70740;Laerm;58330;51.888;11.052;2024-03-23T00:52:28;29.60;27.45;40.29;;
70740;Laerm;58330;51.888;11.052;2024-03-23T00:54:54;37.79;27.43;49.72;;
70740;Laerm;58330;51.888;11.052;2024-03-23T00:57:20;41.33;28.70;52.88;;
70740;Laerm;58330;51.888;11.052;2024-03-23T00:59:46;32.77;28.21;42.61;;
70740;Laerm;58330;51.888;11.052;2024-03-23T01:02:12;32.17;27.84;43.58;;
70740;Laerm;58330;51.888;11.052;2024-03-23T01:04:38;34.26;28.29;45.27;;
70740;Laerm;58330;51.888;11.052;2024-03-23T01:07:04;39.04;28.31;50.81;;
70740;Laerm;58330;51.888;11.052;2024-03-23T01:09:30;41.16;28.04;54.12;;
70740;Laerm;58330;51.888;11.052;2024-03-23T01:11:58;42.22;27.99;54.36;;
70740;Laerm;58330;51.888;11.052;2024-03-23T01:14:24;36.54;27.70;48.27;;
70740;Laerm;58330;51.888;11.052;2024-03-23T01:16:50;36.25;27.55;48.96;;
70740;Laerm;58330;51.888;11.052;2024-03-23T01:19:15;37.70;27.81;52.19;;
70740;Laerm;58330;51.888;11.052;2024-03-23T01:21:41;37.68;28.15;57.90;;
70740;Laerm;58330;51.888;11.052;2024-03-23T01:24:08;38.20;27.70;51.53;;
70740;Laerm;58330;51.888;11.052;2024-03-23T01:26:35;31.84;27.49;42.48;;
70740;Laerm;58330;51.888;11.052;2024-03-23T01:29:02;36.11;27.92;48.50;;
70740;Laerm;58330;51.888;11.052;2024-03-23T01:31:28;39.00;28.13;53.14;;
70740;Laerm;58330;51.888;11.052;2024-03-23T01:33:53;31.99;27.77;43.81;;
70740;Laerm;58330;51.888;11.052;2024-03-23T01:36:19;32.37;27.57;50.81;;
70740;Laerm;58330;51.888;11.052;2024-03-23T01:38:45;39.12;27.92;50.00;;
70740;Laerm;58330;51.888;11.052;2024-03-23T01:41:11;38.28;27.77;51.36;;
70740;Laerm;58330;51.888;11.052;2024-03-23T01:43:37;44.24;28.18;58.03;;
70740;Laerm;58330;51.888;11.052;2024-03-23T01:46:03;31.27;27.29;41.48;;
70740;Laerm;58330;51.888;11.052;2024-03-23T01:48:29;28.93;27.37;33.26;;
70740;Laerm;58330;51.888;11.052;2024-03-23T01:50:54;34.92;27.55;50.60;;
70740;Laerm;58330;51.888;11.052;2024-03-23T01:53:20;37.70;27.72;50.45;;
70740;Laerm;58330;51.888;11.052;2024-03-23T01:55:48;34.44;27.78;44.41;;
70740;Laerm;58330;51.888;11.052;2024-03-23T01:58:16;39.65;28.14;53.40;;
70740;Laerm;58330;51.888;11.052;2024-03-23T02:00:41;34.65;28.01;49.70;;
70740;Laerm;58330;51.888;11.052;2024-03-23T02:03:23;33.69;27.56;50.05;;
70740;Laerm;58330;51.888;11.052;2024-03-23T02:05:49;35.38;27.66;49.17;;
70740;Laerm;58330;51.888;11.052;2024-03-23T02:08:16;37.15;27.78;49.56;;
70740;Laerm;58330;51.888;11.052;2024-03-23T02:10:42;28.69;27.39;34.97;;
70740;Laerm;58330;51.888;11.052;2024-03-23T02:13:08;32.57;27.54;42.13;;
70740;Laerm;58330;51.888;11.052;2024-03-23T02:15:34;29.15;28.04;32.35;;
70740;Laerm;58330;51.888;11.052;2024-03-23T02:18:00;40.30;27.88;54.37;;
70740;Laerm;58330;51.888;11.052;2024-03-23T02:20:27;33.50;27.42;44.01;;
70740;Laerm;58330;51.888;11.052;2024-03-23T02:22:53;28.92;27.50;33.90;;
70740;Laerm;58330;51.888;11.052;2024-03-23T02:25:19;38.24;28.11;52.80;;
70740;Laerm;58330;51.888;11.052;2024-03-23T02:27:45;39.28;28.35;53.36;;
70740;Laerm;58330;51.888;11.052;2024-03-23T02:30:11;37.54;28.20;52.50;;
70740;Laerm;58330;51.888;11.052;2024-03-23T02:32:37;34.94;27.59;49.30;;
70740;Laerm;58330;51.888;11.052;2024-03-23T02:35:02;45.51;28.94;60.88;;
70740;Laerm;58330;51.888;11.052;2024-03-23T02:37:28;40.49;27.66;51.78;;
70740;Laerm;58330;51.888;11.052;2024-03-23T02:39:54;31.61;27.29;42.01;;
70740;Laerm;58330;51.888;11.052;2024-03-23T02:42:22;39.61;27.40;53.89;;
70740;Laerm;58330;51.888;11.052;2024-03-23T02:44:48;37.61;27.76;50.77;;
70740;Laerm;58330;51.888;11.052;2024-03-23T02:47:15;35.99;28.14;48.99;;
70740;Laerm;58330;51.888;11.052;2024-03-23T02:49:41;33.03;28.86;44.10;;
70740;Laerm;58330;51.888;11.052;2024-03-23T02:52:06;38.10;30.23;52.01;;
70740;Laerm;58330;51.888;11.052;2024-03-23T02:54:32;35.75;28.66;47.72;;
70740;Laerm;58330;51.888;11.052;2024-03-23T02:56:58;38.03;27.99;50.83;;
70740;Laerm;58330;51.888;11.052;2024-03-23T02:59:24;33.65;27.87;47.93;;
70740;Laerm;58330;51.888;11.052;2024-03-23T03:01:50;37.49;27.99;46.21;;
70740;Laerm;58330;51.888;11.052;2024-03-23T03:04:16;38.86;27.96;51.58;;
70740;Laerm;58330;51.888;11.052;2024-03-23T03:06:41;38.00;28.31;48.63;;
70740;Laerm;58330;51.888;11.052;2024-03-23T03:09:07;38.01;28.53;49.89;;
70740;Laerm;58330;51.888;11.052;2024-03-23T03:11:33;36.85;28.07;51.55;;
70740;Laerm;58330;51.888;11.052;2024-03-23T03:13:59;34.60;28.93;43.99;;
70740;Laerm;58330;51.888;11.052;2024-03-23T03:16:26;38.05;30.67;48.76;;
70740;Laerm;58330;51.888;11.052;2024-03-23T03:18:51;40.03;30.71;49.70;;
70740;Laerm;58330;51.888;11.052;2024-03-23T03:21:18;41.31;33.97;51.74;;
70740;Laerm;58330;51.888;11.052;2024-03-23T03:23:44;40.01;33.75;49.58;;
70740;Laerm;58330;51.888;11.052;2024-03-23T03:26:10;43.80;34.16;55.01;;
70740;Laerm;58330;51.888;11.052;2024-03-23T03:28:36;41.77;36.48;48.82;;
70740;Laerm;58330;51.888;11.052;2024-03-23T03:31:01;47.74;41.69;58.55;;
70740;Laerm;58330;51.888;11.052;2024-03-23T03:33:27;44.48;40.52;49.14;;
70740;Laerm;58330;51.888;11.052;2024-03-23T03:35:53;46.04;43.15;52.63;;
70740;Laerm;58330;51.888;11.052;2024-03-23T03:38:19;47.44;44.40;53.53;;
70740;Laerm;58330;51.888;11.052;2024-03-23T03:40:45;46.55;43.38;52.90;;
70740;Laerm;58330;51.888;11.052;2024-03-23T03:43:11;47.14;43.91;53.64;;
70740;Laerm;58330;51.888;11.052;2024-03-23T03:45:36;46.64;42.58;57.63;;
70740;Laerm;58330;51.888;11.052;2024-03-23T03:48:02;45.86;42.05;58.37;;
70740;Laerm;58330;51.888;11.052;2024-03-23T03:50:28;45.22;40.43;56.21;;
70740;Laerm;58330;51.888;11.052;2024-03-23T03:52:54;44.16;39.27;52.49;;
70740;Laerm;58330;51.888;11.052;2024-03-23T03:55:20;43.34;39.84;56.59;;
70740;Laerm;58330;51.888;11.052;2024-03-23T03:57:45;43.93;38.54;54.76;;
70740;Laerm;58330;51.888;11.052;2024-03-23T04:00:11;42.95;38.20;53.77;;
70740;Laerm;58330;51.888;11.052;2024-03-23T04:02:38;44.01;39.10;52.13;;
70740;Laerm;58330;51.888;11.052;2024-03-23T04:05:04;43.75;38.27;53.85;;
70740;Laerm;58330;51.888;11.052;2024-03-23T04:07:30;44.38;39.81;57.63;;
70740;Laerm;58330;51.888;11.052;2024-03-23T04:09:56;45.54;40.97;55.83;;
70740;Laerm;58330;51.888;11.052;2024-03-23T04:12:23;44.51;40.73;54.55;;
70740;Laerm;58330;51.888;11.052;2024-03-23T04:14:49;45.89;42.10;57.70;;
70740;Laerm;58330;51.888;11.052;2024-03-23T04:17:15;45.73;41.63;53.27;;
70740;Laerm;58330;51.888;11.052;2024-03-23T04:19:42;45.09;40.84;54.07;;
70740;Laerm;58330;51.888;11.052;2024-03-23T04:22:07;50.72;40.53;63.68;;
70740;Laerm;58330;51.888;11.052;2024-03-23T04:24:34;46.40;40.54;58.70;;
70740;Laerm;58330;51.888;11.052;2024-03-23T04:27:02;50.15;41.52;60.86;;
70740;Laerm;58330;51.888;11.052;2024-03-23T04:29:31;48.41;40.70;60.47;;
70740;Laerm;58330;51.888;11.052;2024-03-23T04:31:57;48.16;42.38;59.42;;
70740;Laerm;58330;51.888;11.052;2024-03-23T04:34:22;46.47;42.05;56.46;;
70740;Laerm;58330;51.888;11.052;2024-03-23T04:36:48;49.57;42.68;60.57;;
70740;Laerm;58330;51.888;11.052;2024-03-23T04:39:14;51.77;42.10;62.84;;
70740;Laerm;58330;51.888;11.052;2024-03-23T04:41:40;50.58;42.94;69.92;;
70740;Laerm;58330;51.888;11.052;2024-03-23T04:44:05;50.24;42.25;60.82;;
70740;Laerm;58330;51.888;11.052;2024-03-23T04:46:31;49.52;42.96;58.21;;
70740;Laerm;58330;51.888;11.052;2024-03-23T04:48:57;51.01;43.50;60.46;;
70740;Laerm;58330;51.888;11.052;2024-03-23T04:51:23;47.66;41.20;65.43;;
70740;Laerm;58330;51.888;11.052;2024-03-23T04:53:48;49.24;42.03;59.19;;
70740;Laerm;58330;51.888;11.052;2024-03-23T04:56:17;48.24;44.28;58.94;;
70740;Laerm;58330;51.888;11.052;2024-03-23T04:58:43;47.72;43.48;59.08;;
70740;Laerm;58330;51.888;11.052;2024-03-23T05:01:10;47.05;43.96;52.95;;
70740;Laerm;58330;51.888;11.052;2024-03-23T05:03:36;47.25;43.67;56.12;;
70740;Laerm;58330;51.888;11.052;2024-03-23T05:06:01;48.61;44.23;59.90;;
70740;Laerm;58330;51.888;11.052;2024-03-23T05:08:27;51.42;42.57;63.62;;
70740;Laerm;58330;51.888;11.052;2024-03-23T05:10:54;45.38;42.42;54.55;;
70740;Laerm;58330;51.888;11.052;2024-03-23T05:13:19;45.95;42.50;54.64;;
70740;Laerm;58330;51.888;11.052;2024-03-23T05:15:51;47.58;43.99;58.96;;
70740;Laerm;58330;51.888;11.052;2024-03-23T05:18:17;48.44;44.36;60.59;;
70740;Laerm;58330;51.888;11.052;2024-03-23T05:20:42;48.45;43.42;59.35;;
70740;Laerm;58330;51.888;11.052;2024-03-23T05:23:09;47.86;42.77;59.36;;
70740;Laerm;58330;51.888;11.052;2024-03-23T05:25:35;53.68;43.79;64.78;;
70740;Laerm;58330;51.888;11.052;2024-03-23T05:28:00;48.74;42.94;57.22;;
70740;Laerm;58330;51.888;11.052;2024-03-23T05:30:26;47.64;42.46;54.97;;
70740;Laerm;58330;51.888;11.052;2024-03-23T05:32:52;47.28;42.74;56.81;;
70740;Laerm;58330;51.888;11.052;2024-03-23T05:35:18;48.40;43.38;56.07;;
70740;Laerm;58330;51.888;11.052;2024-03-23T05:37:45;48.29;42.85;57.50;;
70740;Laerm;58330;51.888;11.052;2024-03-23T05:40:11;48.35;41.77;61.05;;
70740;Laerm;58330;51.888;11.052;2024-03-23T05:42:38;47.02;42.00;61.56;;
70740;Laerm;58330;51.888;11.052;2024-03-23T05:45:03;48.32;42.75;58.73;;
70740;Laerm;58330;51.888;11.052;2024-03-23T05:47:31;46.31;42.29;56.71;;
70740;Laerm;58330;51.888;11.052;2024-03-23T05:49:57;46.72;42.45;56.01;;
70740;Laerm;58330;51.888;11.052;2024-03-23T05:52:23;47.09;42.52;55.31;;
70740;Laerm;58330;51.888;11.052;2024-03-23T05:54:51;51.25;44.80;63.43;;
70740;Laerm;58330;51.888;11.052;2024-03-23T05:57:17;52.26;44.42;65.85;;
70740;Laerm;58330;51.888;11.052;2024-03-23T05:59:44;50.63;43.87;61.07;;
70740;Laerm;58330;51.888;11.052;2024-03-23T06:02:10;49.69;43.63;59.94;;
70740;Laerm;58330;51.888;11.052;2024-03-23T06:04:35;48.50;43.55;62.55;;
70740;Laerm;58330;51.888;11.052;2024-03-23T06:07:02;49.47;42.20;66.37;;
70740;Laerm;58330;51.888;11.052;2024-03-23T06:09:27;49.20;42.27;66.29;;
70740;Laerm;58330;51.888;11.052;2024-03-23T06:11:56;50.49;41.21;61.54;;
70740;Laerm;58330;51.888;11.052;2024-03-23T06:14:22;47.53;41.91;64.57;;
70740;Laerm;58330;51.888;11.052;2024-03-23T06:16:48;46.79;41.35;58.80;;
70740;Laerm;58330;51.888;11.052;2024-03-23T06:19:14;53.04;42.50;66.70;;
70740;Laerm;58330;51.888;11.052;2024-03-23T06:21:43;52.08;42.42;63.62;;
70740;Laerm;58330;51.888;11.052;2024-03-23T06:24:10;52.62;43.34;65.17;;
70740;Laerm;58330;51.888;11.052;2024-03-23T06:26:36;49.81;42.90;65.99;;
70740;Laerm;58330;51.888;11.052;2024-03-23T06:29:02;51.23;42.50;66.00;;
70740;Laerm;58330;51.888;11.052;2024-03-23T06:31:27;50.39;42.83;59.36;;
70740;Laerm;58330;51.888;11.052;2024-03-23T06:33:55;50.36;44.43;59.40;;
70740;Laerm;58330;51.888;11.052;2024-03-23T06:36:20;49.98;44.34;62.65;;
70740;Laerm;58330;51.888;11.052;2024-03-23T06:38:46;53.41;45.33;65.41;;
70740;Laerm;58330;51.888;11.052;2024-03-23T06:41:12;51.85;44.87;62.93;;
70740;Laerm;58330;51.888;11.052;2024-03-23T06:43:38;49.58;45.13;65.14;;
70740;Laerm;58330;51.888;11.052;2024-03-23T06:46:04;50.74;44.92;59.64;;
70740;Laerm;58330;51.888;11.052;2024-03-23T06:48:30;54.86;45.81;65.82;;
70740;Laerm;58330;51.888;11.052;2024-03-23T06:50:56;54.32;45.28;66.55;;
70740;Laerm;58330;51.888;11.052;2024-03-23T06:53:22;49.06;43.15;61.02;;
70740;Laerm;58330;51.888;11.052;2024-03-23T06:55:51;49.16;42.83;57.75;;
70740;Laerm;58330;51.888;11.052;2024-03-23T06:58:18;51.79;43.69;63.80;;
70740;Laerm;58330;51.888;11.052;2024-03-23T07:00:44;51.35;43.73;63.35;;
70740;Laerm;58330;51.888;11.052;2024-03-23T07:03:10;54.27;43.11;68.11;;
70740;Laerm;58330;51.888;11.052;2024-03-23T07:05:35;56.48;43.60;67.95;;
70740;Laerm;58330;51.888;11.052;2024-03-23T07:08:01;51.14;43.87;65.73;;
70740;Laerm;58330;51.888;11.052;2024-03-23T07:10:27;51.31;43.60;62.79;;
70740;Laerm;58330;51.888;11.052;2024-03-23T07:12:52;52.68;42.78;66.17;;
70740;Laerm;58330;51.888;11.052;2024-03-23T07:15:18;51.83;44.41;66.66;;
70740;Laerm;58330;51.888;11.052;2024-03-23T07:17:46;51.97;44.25;67.23;;
70740;Laerm;58330;51.888;11.052;2024-03-23T07:20:12;52.20;43.67;68.10;;
70740;Laerm;58330;51.888;11.052;2024-03-23T07:22:38;46.99;41.65;58.27;;
70740;Laerm;58330;51.888;11.052;2024-03-23T07:25:05;50.48;42.68;63.42;;
70740;Laerm;58330;51.888;11.052;2024-03-23T07:27:31;48.68;41.78;60.37;;
70740;Laerm;58330;51.888;11.052;2024-03-23T07:29:57;50.28;41.99;62.31;;
70740;Laerm;58330;51.888;11.052;2024-03-23T07:32:23;49.40;42.44;60.94;;
70740;Laerm;58330;51.888;11.052;2024-03-23T07:34:49;47.05;40.95;60.30;;
70740;Laerm;58330;51.888;11.052;2024-03-23T07:37:15;51.58;40.64;66.80;;
70740;Laerm;58330;51.888;11.052;2024-03-23T07:39:41;53.81;41.36;62.50;;
70740;Laerm;58330;51.888;11.052;2024-03-23T07:42:07;49.46;40.44;60.54;;
70740;Laerm;58330;51.888;11.052;2024-03-23T07:44:33;52.64;41.03;66.51;;
70740;Laerm;58330;51.888;11.052;2024-03-23T07:47:01;49.12;42.06;65.08;;
70740;Laerm;58330;51.888;11.052;2024-03-23T07:49:27;50.48;41.34;66.34;;
70740;Laerm;58330;51.888;11.052;2024-03-23T07:51:53;47.83;40.74;56.24;;
70740;Laerm;58330;51.888;11.052;2024-03-23T07:54:19;52.18;39.88;66.89;;
70740;Laerm;58330;51.888;11.052;2024-03-23T07:56:44;51.66;43.01;61.62;;
70740;Laerm;58330;51.888;11.052;2024-03-23T07:59:10;52.08;42.20;63.64;;
70740;Laerm;58330;51.888;11.052;2024-03-23T08:01:36;51.84;43.76;65.58;;
70740;Laerm;58330;51.888;11.052;2024-03-23T08:04:02;49.00;40.87;59.90;;
70740;Laerm;58330;51.888;11.052;2024-03-23T08:06:28;51.42;41.37;67.94;;
70740;Laerm;58330;51.888;11.052;2024-03-23T08:08:55;54.93;42.04;63.24;;
70740;Laerm;58330;51.888;11.052;2024-03-23T08:11:31;46.90;40.42;54.88;;
70740;Laerm;58330;51.888;11.052;2024-03-23T08:13:57;50.43;41.85;65.07;;
70740;Laerm;58330;51.888;11.052;2024-03-23T08:16:24;48.02;40.26;64.27;;
70740;Laerm;58330;51.888;11.052;2024-03-23T08:18:53;51.41;40.88;65.45;;
70740;Laerm;58330;51.888;11.052;2024-03-23T08:21:19;53.22;39.96;67.57;;
70740;Laerm;58330;51.888;11.052;2024-03-23T08:23:45;53.78;41.73;65.48;;
70740;Laerm;58330;51.888;11.052;2024-03-23T08:26:11;52.36;42.93;64.38;;
70740;Laerm;58330;51.888;11.052;2024-03-23T08:28:38;53.99;41.17;65.14;;
70740;Laerm;58330;51.888;11.052;2024-03-23T08:31:05;53.09;39.40;64.66;;
70740;Laerm;58330;51.888;11.052;2024-03-23T08:33:31;49.70;37.05;60.40;;
70740;Laerm;58330;51.888;11.052;2024-03-23T08:35:57;52.23;40.61;63.46;;
70740;Laerm;58330;51.888;11.052;2024-03-23T08:38:23;49.98;42.16;61.68;;
70740;Laerm;58330;51.888;11.052;2024-03-23T08:41:00;49.19;39.47;61.43;;
70740;Laerm;58330;51.888;11.052;2024-03-23T08:43:26;50.54;41.77;66.19;;
70740;Laerm;58330;51.888;11.052;2024-03-23T08:45:52;52.83;40.80;66.39;;
70740;Laerm;58330;51.888;11.052;2024-03-23T08:48:21;50.84;41.19;63.27;;
70740;Laerm;58330;51.888;11.052;2024-03-23T08:50:47;51.06;39.59;60.81;;
70740;Laerm;58330;51.888;11.052;2024-03-23T08:53:14;50.57;41.27;61.96;;
70740;Laerm;58330;51.888;11.052;2024-03-23T08:55:40;46.79;41.13;61.52;;
70740;Laerm;58330;51.888;11.052;2024-03-23T08:58:06;51.13;41.11;62.63;;
70740;Laerm;58330;51.888;11.052;2024-03-23T09:00:33;50.90;41.99;61.16;;
70740;Laerm;58330;51.888;11.052;2024-03-23T09:02:59;50.08;39.21;60.26;;
70740;Laerm;58330;51.888;11.052;2024-03-23T09:05:28;46.34;39.90;54.74;;
70740;Laerm;58330;51.888;11.052;2024-03-23T09:07:56;49.10;40.91;61.45;;
70740;Laerm;58330;51.888;11.052;2024-03-23T09:10:22;49.77;37.12;61.69;;
70740;Laerm;58330;51.888;11.052;2024-03-23T09:12:48;59.01;41.11;74.72;;
70740;Laerm;58330;51.888;11.052;2024-03-23T09:15:15;51.64;42.00;63.91;;
70740;Laerm;58330;51.888;11.052;2024-03-23T09:17:41;50.41;42.42;61.87;;
70740;Laerm;58330;51.888;11.052;2024-03-23T09:20:07;49.56;39.36;62.32;;
70740;Laerm;58330;51.888;11.052;2024-03-23T09:22:33;50.11;36.97;60.75;;
70740;Laerm;58330;51.888;11.052;2024-03-23T09:24:58;46.84;37.36;53.71;;
70740;Laerm;58330;51.888;11.052;2024-03-23T09:27:24;46.34;36.36;55.90;;
70740;Laerm;58330;51.888;11.052;2024-03-23T09:29:50;51.93;39.37;65.38;;
70740;Laerm;58330;51.888;11.052;2024-03-23T09:32:16;50.83;38.86;62.01;;
70740;Laerm;58330;51.888;11.052;2024-03-23T09:34:42;47.75;37.91;55.65;;
70740;Laerm;58330;51.888;11.052;2024-03-23T09:37:08;48.55;40.41;61.73;;
70740;Laerm;58330;51.888;11.052;2024-03-23T09:39:34;46.97;39.30;58.27;;
70740;Laerm;58330;51.888;11.052;2024-03-23T09:42:00;46.85;40.74;57.26;;
70740;Laerm;58330;51.888;11.052;2024-03-23T09:44:27;50.99;38.59;63.05;;
70740;Laerm;58330;51.888;11.052;2024-03-23T09:46:54;50.69;39.21;61.25;;
70740;Laerm;58330;51.888;11.052;2024-03-23T09:49:20;47.01;39.69;61.14;;
70740;Laerm;58330;51.888;11.052;2024-03-23T09:51:46;50.68;41.50;61.08;;
70740;Laerm;58330;51.888;11.052;2024-03-23T09:54:11;52.09;39.83;62.60;;
70740;Laerm;58330;51.888;11.052;2024-03-23T09:56:37;48.12;40.11;59.52;;
70740;Laerm;58330;51.888;11.052;2024-03-23T09:59:03;52.43;42.35;62.05;;
70740;Laerm;58330;51.888;11.052;2024-03-23T10:01:29;49.98;40.70;60.34;;
70740;Laerm;58330;51.888;11.052;2024-03-23T10:03:55;47.86;42.66;60.80;;
70740;Laerm;58330;51.888;11.052;2024-03-23T10:06:21;54.30;43.87;65.74;;
70740;Laerm;58330;51.888;11.052;2024-03-23T10:08:47;48.57;42.34;60.12;;
70740;Laerm;58330;51.888;11.052;2024-03-23T10:11:14;50.62;43.33;63.86;;
70740;Laerm;58330;51.888;11.052;2024-03-23T10:13:41;47.71;42.91;53.52;;
70740;Laerm;58330;51.888;11.052;2024-03-23T10:16:07;48.02;37.99;60.57;;
70740;Laerm;58330;51.888;11.052;2024-03-23T10:18:36;53.09;42.17;67.50;;
70740;Laerm;58330;51.888;11.052;2024-03-23T10:23:34;50.14;40.05;61.90;;
70740;Laerm;58330;51.888;11.052;2024-03-23T10:26:12;48.85;40.44;62.03;;
70740;Laerm;58330;51.888;11.052;2024-03-23T10:31:16;49.69;37.17;60.37;;
70740;Laerm;58330;51.888;11.052;2024-03-23T10:33:45;53.62;40.68;67.42;;
70740;Laerm;58330;51.888;11.052;2024-03-23T10:36:12;49.83;40.04;61.43;;
70740;Laerm;58330;51.888;11.052;2024-03-23T10:38:38;48.57;36.39;62.65;;
70740;Laerm;58330;51.888;11.052;2024-03-23T10:41:05;51.18;39.61;63.89;;
70740;Laerm;58330;51.888;11.052;2024-03-23T10:43:31;45.74;37.28;55.48;;
70740;Laerm;58330;51.888;11.052;2024-03-23T10:45:59;50.06;37.17;62.26;;
70740;Laerm;58330;51.888;11.052;2024-03-23T10:48:25;50.21;41.08;64.08;;
70740;Laerm;58330;51.888;11.052;2024-03-23T10:50:51;49.47;39.82;62.21;;
70740;Laerm;58330;51.888;11.052;2024-03-23T10:53:17;48.44;37.66;58.68;;
70740;Laerm;58330;51.888;11.052;2024-03-23T10:55:42;48.64;38.87;63.63;;
70740;Laerm;58330;51.888;11.052;2024-03-23T10:58:09;52.26;43.46;66.40;;
70740;Laerm;58330;51.888;11.052;2024-03-23T11:00:37;45.70;37.01;58.91;;
70740;Laerm;58330;51.888;11.052;2024-03-23T11:06:02;48.78;38.53;64.07;;
70740;Laerm;58330;51.888;11.052;2024-03-23T11:13:41;52.66;37.69;81.10;;
70740;Laerm;58330;51.888;11.052;2024-03-23T11:16:16;49.06;39.43;70.99;;
70740;Laerm;58330;51.888;11.052;2024-03-23T11:18:43;54.76;44.32;63.38;;
70740;Laerm;58330;51.888;11.052;2024-03-23T11:21:09;53.35;44.56;75.79;;
70740;Laerm;58330;51.888;11.052;2024-03-23T11:23:35;52.55;39.25;62.29;;
70740;Laerm;58330;51.888;11.052;2024-03-23T11:26:01;49.57;41.10;77.33;;
70740;Laerm;58330;51.888;11.052;2024-03-23T11:28:28;49.59;37.45;71.45;;
70740;Laerm;58330;51.888;11.052;2024-03-23T11:30:53;49.55;37.88;71.99;;
70740;Laerm;58330;51.888;11.052;2024-03-23T11:33:19;52.10;38.84;75.34;;
70740;Laerm;58330;51.888;11.052;2024-03-23T11:35:45;51.10;40.48;71.04;;
70740;Laerm;58330;51.888;11.052;2024-03-23T11:38:14;53.71;37.65;64.46;;
70740;Laerm;58330;51.888;11.052;2024-03-23T11:40:41;56.55;37.41;72.09;;
70740;Laerm;58330;51.888;11.052;2024-03-23T11:43:07;58.20;37.51;73.58;;
70740;Laerm;58330;51.888;11.052;2024-03-23T11:45:33;56.60;37.73;72.15;;
70740;Laerm;58330;51.888;11.052;2024-03-23T11:50:28;55.58;38.33;67.19;;
70740;Laerm;58330;51.888;11.052;2024-03-23T11:53:05;45.66;37.83;61.36;;
70740;Laerm;58330;51.888;11.052;2024-03-23T11:55:38;50.11;37.10;62.44;;
70740;Laerm;58330;51.888;11.052;2024-03-23T11:58:04;49.92;35.21;62.42;;
70740;Laerm;58330;51.888;11.052;2024-03-23T12:00:29;45.55;35.65;53.77;;
70740;Laerm;58330;51.888;11.052;2024-03-23T12:02:59;46.28;36.71;62.43;;
70740;Laerm;58330;51.888;11.052;2024-03-23T12:05:26;48.32;38.91;59.85;;
70740;Laerm;58330;51.888;11.052;2024-03-23T12:07:51;49.12;35.29;63.40;;
70740;Laerm;58330;51.888;11.052;2024-03-23T12:10:18;48.00;38.13;61.72;;
70740;Laerm;58330;51.888;11.052;2024-03-23T12:12:44;49.57;38.32;63.95;;
70740;Laerm;58330;51.888;11.052;2024-03-23T12:15:10;50.50;40.21;64.43;;
70740;Laerm;58330;51.888;11.052;2024-03-23T12:17:38;45.48;37.99;55.51;;
70740;Laerm;58330;51.888;11.052;2024-03-23T12:20:04;52.47;42.75;63.59;;
70740;Laerm;58330;51.888;11.052;2024-03-23T12:22:29;48.78;38.69;61.34;;
70740;Laerm;58330;51.888;11.052;2024-03-23T12:24:55;47.42;38.13;57.19;;
70740;Laerm;58330;51.888;11.052;2024-03-23T12:27:21;49.86;40.62;62.47;;
70740;Laerm;58330;51.888;11.052;2024-03-23T12:29:46;44.13;38.24;52.03;;
70740;Laerm;58330;51.888;11.052;2024-03-23T12:32:13;46.96;36.35;60.03;;
70740;Laerm;58330;51.888;11.052;2024-03-23T12:34:38;48.47;38.87;59.80;;
70740;Laerm;58330;51.888;11.052;2024-03-23T12:37:04;48.34;35.39;61.25;;
70740;Laerm;58330;51.888;11.052;2024-03-23T12:39:31;49.47;39.17;58.52;;
70740;Laerm;58330;51.888;11.052;2024-03-23T12:41:57;45.13;37.75;53.99;;
70740;Laerm;58330;51.888;11.052;2024-03-23T12:44:23;48.96;36.54;65.83;;
70740;Laerm;58330;51.888;11.052;2024-03-23T12:46:48;51.14;39.47;63.66;;
70740;Laerm;58330;51.888;11.052;2024-03-23T12:49:14;49.99;40.65;60.75;;
70740;Laerm;58330;51.888;11.052;2024-03-23T12:51:48;54.05;44.85;64.34;;
70740;Laerm;58330;51.888;11.052;2024-03-23T12:54:18;53.20;46.21;65.39;;
70740;Laerm;58330;51.888;11.052;2024-03-23T12:56:45;57.43;44.11;82.49;;
70740;Laerm;58330;51.888;11.052;2024-03-23T12:59:11;50.39;43.34;63.17;;
70740;Laerm;58330;51.888;11.052;2024-03-23T13:01:39;50.76;44.59;65.31;;
70740;Laerm;58330;51.888;11.052;2024-03-23T13:04:05;49.07;41.71;60.20;;
70740;Laerm;58330;51.888;11.052;2024-03-23T13:06:30;46.57;40.92;54.56;;
70740;Laerm;58330;51.888;11.052;2024-03-23T13:09:00;47.63;38.99;59.22;;
70740;Laerm;58330;51.888;11.052;2024-03-23T13:11:27;45.23;37.92;55.50;;
70740;Laerm;58330;51.888;11.052;2024-03-23T13:13:53;45.74;37.18;59.34;;
70740;Laerm;58330;51.888;11.052;2024-03-23T13:16:19;44.26;36.14;60.36;;
70740;Laerm;58330;51.888;11.052;2024-03-23T13:18:45;47.79;38.18;63.28;;
70740;Laerm;58330;51.888;11.052;2024-03-23T13:21:11;49.80;40.49;60.49;;
70740;Laerm;58330;51.888;11.052;2024-03-23T13:23:36;48.53;37.87;61.48;;
70740;Laerm;58330;51.888;11.052;2024-03-23T13:26:03;48.38;40.01;58.68;;
70740;Laerm;58330;51.888;11.052;2024-03-23T13:28:29;46.37;38.28;52.67;;
70740;Laerm;58330;51.888;11.052;2024-03-23T13:30:55;45.75;38.65;59.98;;
70740;Laerm;58330;51.888;11.052;2024-03-23T13:33:21;47.97;40.89;57.24;;
70740;Laerm;58330;51.888;11.052;2024-03-23T13:35:53;48.26;37.12;59.53;;
70740;Laerm;58330;51.888;11.052;2024-03-23T13:38:19;45.25;39.02;52.40;;
70740;Laerm;58330;51.888;11.052;2024-03-23T13:40:54;47.42;37.80;60.22;;
70740;Laerm;58330;51.888;11.052;2024-03-23T13:43:21;50.20;38.45;61.49;;
70740;Laerm;58330;51.888;11.052;2024-03-23T13:45:47;52.61;41.27;61.55;;
70740;Laerm;58330;51.888;11.052;2024-03-23T13:48:14;53.17;45.59;63.64;;
70740;Laerm;58330;51.888;11.052;2024-03-23T13:50:40;51.35;44.76;62.37;;
70740;Laerm;58330;51.888;11.052;2024-03-23T13:53:06;48.08;43.29;54.98;;
70740;Laerm;58330;51.888;11.052;2024-03-23T13:55:31;47.15;41.70;55.84;;
70740;Laerm;58330;51.888;11.052;2024-03-23T13:57:57;50.47;41.97;64.27;;
70740;Laerm;58330;51.888;11.052;2024-03-23T14:00:23;50.39;41.88;63.28;;
70740;Laerm;58330;51.888;11.052;2024-03-23T14:02:48;48.67;42.53;59.47;;
70740;Laerm;58330;51.888;11.052;2024-03-23T14:05:14;47.30;35.73;59.68;;
70740;Laerm;58330;51.888;11.052;2024-03-23T14:07:40;51.49;37.61;63.75;;
70740;Laerm;58330;51.888;11.052;2024-03-23T14:10:06;49.87;38.17;63.91;;
70740;Laerm;58330;51.888;11.052;2024-03-23T14:12:33;47.08;37.39;57.13;;
70740;Laerm;58330;51.888;11.052;2024-03-23T14:14:58;50.62;40.60;61.34;;
70740;Laerm;58330;51.888;11.052;2024-03-23T14:17:24;49.05;39.71;59.90;;
70740;Laerm;58330;51.888;11.052;2024-03-23T14:19:51;48.24;36.68;62.27;;
70740;Laerm;58330;51.888;11.052;2024-03-23T14:22:17;45.37;36.44;59.64;;
70740;Laerm;58330;51.888;11.052;2024-03-23T14:24:48;49.65;41.84;61.45;;
70740;Laerm;58330;51.888;11.052;2024-03-23T14:27:14;49.45;41.16;61.33;;
70740;Laerm;58330;51.888;11.052;2024-03-23T14:29:40;46.02;40.48;55.27;;
70740;Laerm;58330;51.888;11.052;2024-03-23T14:32:05;47.51;39.69;57.36;;
70740;Laerm;58330;51.888;11.052;2024-03-23T14:34:31;48.66;37.23;59.77;;